sensor_id;sensor_type;location;lat;lon;timestamp;temperature;humidity
15705;DHT22;7952;48.396;12.806;2023-05-07T00:01:46;15.60;51.10
15705;DHT22;7952;48.396;12.806;2023-05-07T00:04:12;15.60;51.10
15705;DHT22;7952;48.396;12.806;2023-05-07T00:06:38;15.60;51.20
15705;DHT22;7952;48.396;12.806;2023-05-07T00:09:05;15.60;51.20
15705;DHT22;7952;48.396;12.806;2023-05-07T00:11:34;15.60;51.20
15705;DHT22;7952;48.396;12.806;2023-05-07T00:14:00;15.60;51.20
15705;DHT22;7952;48.396;12.806;2023-05-07T00:16:26;15.60;51.20
15705;DHT22;7952;48.396;12.806;2023-05-07T00:18:52;15.50;51.10
15705;DHT22;7952;48.396;12.806;2023-05-07T00:21:18;15.50;51.20
15705;DHT22;7952;48.396;12.806;2023-05-07T00:23:43;15.50;51.20
15705;DHT22;7952;48.396;12.806;2023-05-07T00:26:09;15.50;51.20
15705;DHT22;7952;48.396;12.806;2023-05-07T00:28:35;15.40;51.10
15705;DHT22;7952;48.396;12.806;2023-05-07T00:31:01;15.40;51.10
15705;DHT22;7952;48.396;12.806;2023-05-07T00:33:27;15.40;51.20
15705;DHT22;7952;48.396;12.806;2023-05-07T00:35:53;15.40;51.20
15705;DHT22;7952;48.396;12.806;2023-05-07T00:38:20;15.40;51.20
15705;DHT22;7952;48.396;12.806;2023-05-07T00:40:45;15.40;51.30
15705;DHT22;7952;48.396;12.806;2023-05-07T00:43:11;15.40;51.30
15705;DHT22;7952;48.396;12.806;2023-05-07T00:45:38;15.30;51.20
15705;DHT22;7952;48.396;12.806;2023-05-07T00:48:04;15.30;51.20
15705;DHT22;7952;48.396;12.806;2023-05-07T00:50:31;15.30;51.20
15705;DHT22;7952;48.396;12.806;2023-05-07T00:52:58;15.30;51.30
15705;DHT22;7952;48.396;12.806;2023-05-07T00:55:25;15.30;51.40
15705;DHT22;7952;48.396;12.806;2023-05-07T00:57:51;15.30;51.40
15705;DHT22;7952;48.396;12.806;2023-05-07T01:00:17;15.20;51.30
15705;DHT22;7952;48.396;12.806;2023-05-07T01:02:44;15.20;51.40
15705;DHT22;7952;48.396;12.806;2023-05-07T01:05:12;15.20;51.40
15705;DHT22;7952;48.396;12.806;2023-05-07T01:07:40;15.20;51.40
15705;DHT22;7952;48.396;12.806;2023-05-07T01:10:08;15.10;51.40
15705;DHT22;7952;48.396;12.806;2023-05-07T01:12:36;15.10;51.40
15705;DHT22;7952;48.396;12.806;2023-05-07T01:15:03;15.10;52.00
15705;DHT22;7952;48.396;12.806;2023-05-07T01:17:36;15.10;51.40
15705;DHT22;7952;48.396;12.806;2023-05-07T01:20:04;15.10;51.40
15705;DHT22;7952;48.396;12.806;2023-05-07T01:22:38;15.10;51.40
15705;DHT22;7952;48.396;12.806;2023-05-07T01:25:05;15.10;51.40
15705;DHT22;7952;48.396;12.806;2023-05-07T01:27:31;15.10;51.40
15705;DHT22;7952;48.396;12.806;2023-05-07T01:29:59;15.00;51.30
15705;DHT22;7952;48.396;12.806;2023-05-07T01:32:47;15.00;51.30
15705;DHT22;7952;48.396;12.806;2023-05-07T01:35:20;14.90;51.30
15705;DHT22;7952;48.396;12.806;2023-05-07T01:37:48;14.90;51.40
15705;DHT22;7952;48.396;12.806;2023-05-07T01:40:14;14.80;51.40
15705;DHT22;7952;48.396;12.806;2023-05-07T01:42:41;14.70;51.40
15705;DHT22;7952;48.396;12.806;2023-05-07T01:45:08;14.70;51.50
15705;DHT22;7952;48.396;12.806;2023-05-07T01:47:36;14.60;51.50
15705;DHT22;7952;48.396;12.806;2023-05-07T01:50:05;14.60;51.60
15705;DHT22;7952;48.396;12.806;2023-05-07T01:52:31;14.60;51.60
15705;DHT22;7952;48.396;12.806;2023-05-07T01:54:57;14.60;51.60
15705;DHT22;7952;48.396;12.806;2023-05-07T01:57:22;14.60;51.60
15705;DHT22;7952;48.396;12.806;2023-05-07T01:59:48;14.60;51.60
15705;DHT22;7952;48.396;12.806;2023-05-07T02:02:14;14.60;51.60
15705;DHT22;7952;48.396;12.806;2023-05-07T02:04:39;14.60;51.70
15705;DHT22;7952;48.396;12.806;2023-05-07T02:07:05;14.60;51.70
15705;DHT22;7952;48.396;12.806;2023-05-07T02:09:31;14.60;51.70
15705;DHT22;7952;48.396;12.806;2023-05-07T02:11:57;14.60;51.70
15705;DHT22;7952;48.396;12.806;2023-05-07T02:14:22;14.60;51.70
15705;DHT22;7952;48.396;12.806;2023-05-07T02:16:48;14.50;51.60
15705;DHT22;7952;48.396;12.806;2023-05-07T02:19:14;14.50;52.20
15705;DHT22;7952;48.396;12.806;2023-05-07T02:21:39;14.50;51.70
15705;DHT22;7952;48.396;12.806;2023-05-07T02:24:05;14.50;51.70
15705;DHT22;7952;48.396;12.806;2023-05-07T02:26:31;14.50;51.70
15705;DHT22;7952;48.396;12.806;2023-05-07T02:28:57;14.50;51.60
15705;DHT22;7952;48.396;12.806;2023-05-07T02:31:22;14.60;51.70
15705;DHT22;7952;48.396;12.806;2023-05-07T02:33:48;14.60;51.70
15705;DHT22;7952;48.396;12.806;2023-05-07T02:36:14;14.50;51.50
15705;DHT22;7952;48.396;12.806;2023-05-07T02:38:40;14.50;51.50
15705;DHT22;7952;48.396;12.806;2023-05-07T02:41:05;14.50;51.60
15705;DHT22;7952;48.396;12.806;2023-05-07T02:43:31;14.50;51.60
15705;DHT22;7952;48.396;12.806;2023-05-07T02:46:04;14.50;51.60
15705;DHT22;7952;48.396;12.806;2023-05-07T02:48:33;14.50;51.70
15705;DHT22;7952;48.396;12.806;2023-05-07T02:51:00;14.50;51.60
15705;DHT22;7952;48.396;12.806;2023-05-07T02:53:26;14.50;51.60
15705;DHT22;7952;48.396;12.806;2023-05-07T02:55:53;14.50;51.70
15705;DHT22;7952;48.396;12.806;2023-05-07T02:58:19;14.50;51.60
15705;DHT22;7952;48.396;12.806;2023-05-07T03:00:45;14.50;51.60
15705;DHT22;7952;48.396;12.806;2023-05-07T03:03:10;14.60;51.70
15705;DHT22;7952;48.396;12.806;2023-05-07T03:05:36;14.60;51.70
15705;DHT22;7952;48.396;12.806;2023-05-07T03:08:02;14.60;51.70
15705;DHT22;7952;48.396;12.806;2023-05-07T03:10:29;14.60;51.70
15705;DHT22;7952;48.396;12.806;2023-05-07T03:12:55;14.60;52.20
15705;DHT22;7952;48.396;12.806;2023-05-07T03:15:21;14.60;51.70
15705;DHT22;7952;48.396;12.806;2023-05-07T03:17:47;14.60;51.70
15705;DHT22;7952;48.396;12.806;2023-05-07T03:20:13;14.50;51.60
15705;DHT22;7952;48.396;12.806;2023-05-07T03:22:39;14.60;51.70
15705;DHT22;7952;48.396;12.806;2023-05-07T03:25:06;14.60;51.70
15705;DHT22;7952;48.396;12.806;2023-05-07T03:27:32;14.60;51.70
15705;DHT22;7952;48.396;12.806;2023-05-07T03:29:57;14.60;51.70
15705;DHT22;7952;48.396;12.806;2023-05-07T03:32:23;14.60;51.80
15705;DHT22;7952;48.396;12.806;2023-05-07T03:34:49;14.50;51.70
15705;DHT22;7952;48.396;12.806;2023-05-07T03:37:15;14.60;51.80
15705;DHT22;7952;48.396;12.806;2023-05-07T03:39:40;14.60;51.80
15705;DHT22;7952;48.396;12.806;2023-05-07T03:42:06;14.60;51.80
15705;DHT22;7952;48.396;12.806;2023-05-07T03:44:32;14.60;51.80
15705;DHT22;7952;48.396;12.806;2023-05-07T03:46:57;14.60;51.80
15705;DHT22;7952;48.396;12.806;2023-05-07T03:49:23;14.60;51.90
15705;DHT22;7952;48.396;12.806;2023-05-07T03:51:49;14.60;51.80
15705;DHT22;7952;48.396;12.806;2023-05-07T03:54:14;14.60;51.80
15705;DHT22;7952;48.396;12.806;2023-05-07T03:56:40;14.60;51.80
15705;DHT22;7952;48.396;12.806;2023-05-07T03:59:06;14.60;51.90
15705;DHT22;7952;48.396;12.806;2023-05-07T04:01:31;14.60;51.90
15705;DHT22;7952;48.396;12.806;2023-05-07T04:03:57;14.60;51.90
15705;DHT22;7952;48.396;12.806;2023-05-07T04:06:23;14.60;51.90
15705;DHT22;7952;48.396;12.806;2023-05-07T04:08:49;14.60;52.00
15705;DHT22;7952;48.396;12.806;2023-05-07T04:11:15;14.60;52.50
15705;DHT22;7952;48.396;12.806;2023-05-07T04:13:41;14.70;51.90
15705;DHT22;7952;48.396;12.806;2023-05-07T04:16:06;14.70;51.90
15705;DHT22;7952;48.396;12.806;2023-05-07T04:18:32;14.80;52.00
15705;DHT22;7952;48.396;12.806;2023-05-07T04:20:58;14.90;51.90
15705;DHT22;7952;48.396;12.806;2023-05-07T04:23:23;14.90;51.90
15705;DHT22;7952;48.396;12.806;2023-05-07T04:25:50;15.00;51.90
15705;DHT22;7952;48.396;12.806;2023-05-07T04:28:16;15.00;51.80
15705;DHT22;7952;48.396;12.806;2023-05-07T04:30:42;15.10;51.80
15705;DHT22;7952;48.396;12.806;2023-05-07T04:33:07;15.10;51.80
15705;DHT22;7952;48.396;12.806;2023-05-07T04:35:34;15.10;51.80
15705;DHT22;7952;48.396;12.806;2023-05-07T04:38:00;15.10;51.80
15705;DHT22;7952;48.396;12.806;2023-05-07T04:40:27;15.10;51.80
15705;DHT22;7952;48.396;12.806;2023-05-07T04:42:52;15.10;51.80
15705;DHT22;7952;48.396;12.806;2023-05-07T04:45:18;15.20;51.80
15705;DHT22;7952;48.396;12.806;2023-05-07T04:47:44;15.20;51.90
15705;DHT22;7952;48.396;12.806;2023-05-07T04:50:10;15.20;51.90
15705;DHT22;7952;48.396;12.806;2023-05-07T04:52:36;15.20;52.00
15705;DHT22;7952;48.396;12.806;2023-05-07T04:55:02;15.20;51.90
15705;DHT22;7952;48.396;12.806;2023-05-07T04:57:28;15.20;51.90
15705;DHT22;7952;48.396;12.806;2023-05-07T04:59:54;15.20;52.00
15705;DHT22;7952;48.396;12.806;2023-05-07T05:02:19;15.20;52.00
15705;DHT22;7952;48.396;12.806;2023-05-07T05:04:45;15.20;52.10
15705;DHT22;7952;48.396;12.806;2023-05-07T05:07:11;15.20;52.10
15705;DHT22;7952;48.396;12.806;2023-05-07T05:09:36;15.20;52.10
15705;DHT22;7952;48.396;12.806;2023-05-07T05:12:02;15.30;52.10
15705;DHT22;7952;48.396;12.806;2023-05-07T05:14:29;15.30;52.20
15705;DHT22;7952;48.396;12.806;2023-05-07T05:16:54;15.30;52.20
15705;DHT22;7952;48.396;12.806;2023-05-07T05:19:20;15.30;52.20
15705;DHT22;7952;48.396;12.806;2023-05-07T05:21:46;15.30;52.20
15705;DHT22;7952;48.396;12.806;2023-05-07T05:24:12;15.40;52.20
15705;DHT22;7952;48.396;12.806;2023-05-07T05:26:41;15.50;52.30
15705;DHT22;7952;48.396;12.806;2023-05-07T05:29:06;15.60;52.30
15705;DHT22;7952;48.396;12.806;2023-05-07T05:31:33;15.70;52.40
15705;DHT22;7952;48.396;12.806;2023-05-07T05:33:59;15.80;52.60
15705;DHT22;7952;48.396;12.806;2023-05-07T05:36:24;16.00;52.60
15705;DHT22;7952;48.396;12.806;2023-05-07T05:38:51;16.20;52.60
15705;DHT22;7952;48.396;12.806;2023-05-07T05:41:17;16.50;53.10
15705;DHT22;7952;48.396;12.806;2023-05-07T05:43:42;17.00;53.10
15705;DHT22;7952;48.396;12.806;2023-05-07T05:46:08;17.60;53.10
15705;DHT22;7952;48.396;12.806;2023-05-07T05:48:37;18.30;53.20
15705;DHT22;7952;48.396;12.806;2023-05-07T05:51:05;19.00;53.10
15705;DHT22;7952;48.396;12.806;2023-05-07T05:53:31;19.80;53.00
15705;DHT22;7952;48.396;12.806;2023-05-07T05:55:57;20.50;52.60
15705;DHT22;7952;48.396;12.806;2023-05-07T05:58:27;21.20;52.20
15705;DHT22;7952;48.396;12.806;2023-05-07T06:00:56;21.70;51.80
15705;DHT22;7952;48.396;12.806;2023-05-07T06:03:25;22.20;51.40
15705;DHT22;7952;48.396;12.806;2023-05-07T06:05:51;22.50;51.10
15705;DHT22;7952;48.396;12.806;2023-05-07T06:08:17;22.80;51.00
15705;DHT22;7952;48.396;12.806;2023-05-07T06:10:44;23.10;50.80
15705;DHT22;7952;48.396;12.806;2023-05-07T06:13:09;23.30;50.50
15705;DHT22;7952;48.396;12.806;2023-05-07T06:15:35;23.50;50.40
15705;DHT22;7952;48.396;12.806;2023-05-07T06:18:01;23.80;50.50
15705;DHT22;7952;48.396;12.806;2023-05-07T06:20:30;24.00;50.30
15705;DHT22;7952;48.396;12.806;2023-05-07T06:22:55;24.20;50.10
15705;DHT22;7952;48.396;12.806;2023-05-07T06:25:22;24.20;50.00
15705;DHT22;7952;48.396;12.806;2023-05-07T06:27:47;24.30;49.70
15705;DHT22;7952;48.396;12.806;2023-05-07T06:30:13;24.20;49.70
15705;DHT22;7952;48.396;12.806;2023-05-07T06:32:40;24.10;49.90
15705;DHT22;7952;48.396;12.806;2023-05-07T06:35:06;24.10;50.10
15705;DHT22;7952;48.396;12.806;2023-05-07T06:37:32;24.20;50.10
15705;DHT22;7952;48.396;12.806;2023-05-07T06:39:58;24.40;50.00
15705;DHT22;7952;48.396;12.806;2023-05-07T06:42:24;24.60;49.90
15705;DHT22;7952;48.396;12.806;2023-05-07T06:44:49;24.70;49.90
15705;DHT22;7952;48.396;12.806;2023-05-07T06:47:18;24.80;49.70
15705;DHT22;7952;48.396;12.806;2023-05-07T06:49:44;25.00;49.80
15705;DHT22;7952;48.396;12.806;2023-05-07T06:52:10;25.10;49.50
15705;DHT22;7952;48.396;12.806;2023-05-07T06:54:35;25.30;49.20
15705;DHT22;7952;48.396;12.806;2023-05-07T06:57:01;25.30;49.20
15705;DHT22;7952;48.396;12.806;2023-05-07T06:59:27;25.50;49.10
15705;DHT22;7952;48.396;12.806;2023-05-07T07:01:52;25.60;49.10
15705;DHT22;7952;48.396;12.806;2023-05-07T07:04:18;25.80;49.00
15705;DHT22;7952;48.396;12.806;2023-05-07T07:06:44;26.00;48.80
15705;DHT22;7952;48.396;12.806;2023-05-07T07:09:10;26.10;48.50
15705;DHT22;7952;48.396;12.806;2023-05-07T07:11:36;26.20;48.20
15705;DHT22;7952;48.396;12.806;2023-05-07T07:14:02;26.30;48.20
15705;DHT22;7952;48.396;12.806;2023-05-07T07:16:27;26.30;48.10
15705;DHT22;7952;48.396;12.806;2023-05-07T07:18:53;26.30;48.00
15705;DHT22;7952;48.396;12.806;2023-05-07T07:21:19;26.30;47.90
15705;DHT22;7952;48.396;12.806;2023-05-07T07:23:45;26.20;48.50
15705;DHT22;7952;48.396;12.806;2023-05-07T07:26:13;26.20;47.90
15705;DHT22;7952;48.396;12.806;2023-05-07T07:28:45;26.00;47.60
15705;DHT22;7952;48.396;12.806;2023-05-07T07:31:11;25.90;47.70
15705;DHT22;7952;48.396;12.806;2023-05-07T07:33:37;25.80;47.70
15705;DHT22;7952;48.396;12.806;2023-05-07T07:36:04;25.80;47.70
15705;DHT22;7952;48.396;12.806;2023-05-07T07:38:30;25.70;47.70
15705;DHT22;7952;48.396;12.806;2023-05-07T07:40:56;25.80;47.80
15705;DHT22;7952;48.396;12.806;2023-05-07T07:43:21;25.90;47.80
15705;DHT22;7952;48.396;12.806;2023-05-07T07:45:50;25.90;47.70
15705;DHT22;7952;48.396;12.806;2023-05-07T07:48:16;26.00;47.50
15705;DHT22;7952;48.396;12.806;2023-05-07T07:50:42;26.10;47.30
15705;DHT22;7952;48.396;12.806;2023-05-07T07:53:08;26.20;47.20
15705;DHT22;7952;48.396;12.806;2023-05-07T07:55:38;26.30;47.00
15705;DHT22;7952;48.396;12.806;2023-05-07T07:58:04;26.30;46.90
15705;DHT22;7952;48.396;12.806;2023-05-07T08:00:30;26.30;46.90
15705;DHT22;7952;48.396;12.806;2023-05-07T08:02:56;26.40;46.90
15705;DHT22;7952;48.396;12.806;2023-05-07T08:05:22;26.40;46.80
15705;DHT22;7952;48.396;12.806;2023-05-07T08:07:48;26.40;46.60
15705;DHT22;7952;48.396;12.806;2023-05-07T08:10:17;26.40;46.60
15705;DHT22;7952;48.396;12.806;2023-05-07T08:12:48;26.40;46.60
15705;DHT22;7952;48.396;12.806;2023-05-07T08:15:14;26.40;46.30
15705;DHT22;7952;48.396;12.806;2023-05-07T08:17:40;26.20;46.20
15705;DHT22;7952;48.396;12.806;2023-05-07T08:20:06;26.00;46.40
15705;DHT22;7952;48.396;12.806;2023-05-07T08:22:34;25.90;46.70
15705;DHT22;7952;48.396;12.806;2023-05-07T08:24:59;25.80;46.70
15705;DHT22;7952;48.396;12.806;2023-05-07T08:27:25;25.80;46.70
15705;DHT22;7952;48.396;12.806;2023-05-07T08:29:51;25.60;46.70
15705;DHT22;7952;48.396;12.806;2023-05-07T08:32:17;25.60;46.80
15705;DHT22;7952;48.396;12.806;2023-05-07T08:34:42;25.50;46.90
15705;DHT22;7952;48.396;12.806;2023-05-07T08:37:08;25.50;46.90
15705;DHT22;7952;48.396;12.806;2023-05-07T08:39:34;25.40;46.90
15705;DHT22;7952;48.396;12.806;2023-05-07T08:42:00;25.40;47.00
15705;DHT22;7952;48.396;12.806;2023-05-07T08:44:28;25.20;47.10
15705;DHT22;7952;48.396;12.806;2023-05-07T08:46:58;25.20;47.30
15705;DHT22;7952;48.396;12.806;2023-05-07T08:49:25;25.10;47.40
15705;DHT22;7952;48.396;12.806;2023-05-07T08:51:51;25.00;47.50
15705;DHT22;7952;48.396;12.806;2023-05-07T08:54:17;25.00;47.80
15705;DHT22;7952;48.396;12.806;2023-05-07T08:56:45;25.00;47.70
15705;DHT22;7952;48.396;12.806;2023-05-07T08:59:10;24.90;47.80
15705;DHT22;7952;48.396;12.806;2023-05-07T09:01:36;24.80;47.90
15705;DHT22;7952;48.396;12.806;2023-05-07T09:04:04;24.70;48.00
15705;DHT22;7952;48.396;12.806;2023-05-07T09:06:31;24.70;48.40
15705;DHT22;7952;48.396;12.806;2023-05-07T09:08:57;24.60;48.20
15705;DHT22;7952;48.396;12.806;2023-05-07T09:11:24;24.60;48.30
15705;DHT22;7952;48.396;12.806;2023-05-07T09:13:54;24.60;48.50
15705;DHT22;7952;48.396;12.806;2023-05-07T09:16:22;24.60;48.50
15705;DHT22;7952;48.396;12.806;2023-05-07T09:18:51;24.50;48.50
15705;DHT22;7952;48.396;12.806;2023-05-07T09:21:18;24.50;48.60
15705;DHT22;7952;48.396;12.806;2023-05-07T09:23:44;24.50;48.70
15705;DHT22;7952;48.396;12.806;2023-05-07T09:26:10;24.50;48.60
15705;DHT22;7952;48.396;12.806;2023-05-07T09:28:41;24.60;48.70
15705;DHT22;7952;48.396;12.806;2023-05-07T09:31:10;24.60;48.70
15705;DHT22;7952;48.396;12.806;2023-05-07T09:33:37;24.60;48.70
15705;DHT22;7952;48.396;12.806;2023-05-07T09:36:08;24.60;48.80
15705;DHT22;7952;48.396;12.806;2023-05-07T09:38:35;24.60;49.00
15705;DHT22;7952;48.396;12.806;2023-05-07T09:41:19;24.60;48.90
15705;DHT22;7952;48.396;12.806;2023-05-07T09:43:45;24.80;48.90
15705;DHT22;7952;48.396;12.806;2023-05-07T09:46:14;24.80;48.80
15705;DHT22;7952;48.396;12.806;2023-05-07T09:48:42;24.90;48.70
15705;DHT22;7952;48.396;12.806;2023-05-07T09:51:25;24.90;48.70
15705;DHT22;7952;48.396;12.806;2023-05-07T09:53:54;25.00;48.70
15705;DHT22;7952;48.396;12.806;2023-05-07T09:56:21;25.00;48.80
15705;DHT22;7952;48.396;12.806;2023-05-07T09:58:49;25.10;48.70
15705;DHT22;7952;48.396;12.806;2023-05-07T10:01:21;25.10;48.60
15705;DHT22;7952;48.396;12.806;2023-05-07T10:03:49;25.10;48.40
15705;DHT22;7952;48.396;12.806;2023-05-07T10:06:16;25.10;48.20
15705;DHT22;7952;48.396;12.806;2023-05-07T10:08:43;24.90;48.30
15705;DHT22;7952;48.396;12.806;2023-05-07T10:11:09;24.80;48.50
15705;DHT22;7952;48.396;12.806;2023-05-07T10:13:38;24.80;48.60
15705;DHT22;7952;48.396;12.806;2023-05-07T10:16:04;24.80;48.80
15705;DHT22;7952;48.396;12.806;2023-05-07T10:18:34;24.80;48.80
15705;DHT22;7952;48.396;12.806;2023-05-07T10:21:28;24.70;48.70
15705;DHT22;7952;48.396;12.806;2023-05-07T10:24:08;24.80;48.90
15705;DHT22;7952;48.396;12.806;2023-05-07T10:26:45;24.80;48.90
15705;DHT22;7952;48.396;12.806;2023-05-07T10:32:33;24.70;48.80
15705;DHT22;7952;48.396;12.806;2023-05-07T10:35:03;24.60;49.00
15705;DHT22;7952;48.396;12.806;2023-05-07T10:37:30;24.70;49.10
15705;DHT22;7952;48.396;12.806;2023-05-07T10:39:56;24.80;48.90
15705;DHT22;7952;48.396;12.806;2023-05-07T10:42:23;24.70;48.60
15705;DHT22;7952;48.396;12.806;2023-05-07T10:44:49;24.70;48.70
15705;DHT22;7952;48.396;12.806;2023-05-07T10:47:16;24.60;48.60
15705;DHT22;7952;48.396;12.806;2023-05-07T10:52:17;24.40;49.00
15705;DHT22;7952;48.396;12.806;2023-05-07T10:54:43;24.50;49.00
15705;DHT22;7952;48.396;12.806;2023-05-07T10:59:57;24.60;48.90
15705;DHT22;7952;48.396;12.806;2023-05-07T11:02:23;24.70;49.00
15705;DHT22;7952;48.396;12.806;2023-05-07T11:05:19;24.70;48.80
15705;DHT22;7952;48.396;12.806;2023-05-07T11:07:57;24.80;48.70
15705;DHT22;7952;48.396;12.806;2023-05-07T11:10:28;24.80;48.60
15705;DHT22;7952;48.396;12.806;2023-05-07T11:13:09;24.80;48.50
15705;DHT22;7952;48.396;12.806;2023-05-07T11:15:40;24.80;48.60
15705;DHT22;7952;48.396;12.806;2023-05-07T11:18:07;24.80;48.50
15705;DHT22;7952;48.396;12.806;2023-05-07T11:20:46;24.80;48.50
15705;DHT22;7952;48.396;12.806;2023-05-07T11:26:01;24.80;48.60
15705;DHT22;7952;48.396;12.806;2023-05-07T11:28:28;24.80;48.50
15705;DHT22;7952;48.396;12.806;2023-05-07T11:30:56;24.80;48.40
15705;DHT22;7952;48.396;12.806;2023-05-07T11:33:23;24.80;48.50
15705;DHT22;7952;48.396;12.806;2023-05-07T11:35:53;24.90;48.50
15705;DHT22;7952;48.396;12.806;2023-05-07T11:38:19;25.00;48.40
15705;DHT22;7952;48.396;12.806;2023-05-07T11:40:49;25.00;48.40
15705;DHT22;7952;48.396;12.806;2023-05-07T11:43:16;25.10;48.30
15705;DHT22;7952;48.396;12.806;2023-05-07T11:45:41;25.20;48.10
15705;DHT22;7952;48.396;12.806;2023-05-07T11:48:07;25.20;47.90
15705;DHT22;7952;48.396;12.806;2023-05-07T11:50:33;25.30;47.90
15705;DHT22;7952;48.396;12.806;2023-05-07T11:52:59;25.30;47.80
15705;DHT22;7952;48.396;12.806;2023-05-07T11:55:24;25.30;47.90
15705;DHT22;7952;48.396;12.806;2023-05-07T11:57:51;25.30;47.80
15705;DHT22;7952;48.396;12.806;2023-05-07T12:00:17;25.30;47.80
15705;DHT22;7952;48.396;12.806;2023-05-07T12:02:45;25.40;47.90
15705;DHT22;7952;48.396;12.806;2023-05-07T12:05:11;25.50;47.70
15705;DHT22;7952;48.396;12.806;2023-05-07T12:07:36;25.60;47.70
15705;DHT22;7952;48.396;12.806;2023-05-07T12:10:06;25.60;47.40
15705;DHT22;7952;48.396;12.806;2023-05-07T12:12:38;25.60;47.20
15705;DHT22;7952;48.396;12.806;2023-05-07T12:15:05;25.60;47.30
15705;DHT22;7952;48.396;12.806;2023-05-07T12:17:34;25.50;47.30
15705;DHT22;7952;48.396;12.806;2023-05-07T12:20:00;25.60;47.40
15705;DHT22;7952;48.396;12.806;2023-05-07T12:22:26;25.60;47.50
15705;DHT22;7952;48.396;12.806;2023-05-07T12:24:58;25.60;47.30
15705;DHT22;7952;48.396;12.806;2023-05-07T12:27:26;25.70;47.40
15705;DHT22;7952;48.396;12.806;2023-05-07T12:29:51;25.80;47.30
15705;DHT22;7952;48.396;12.806;2023-05-07T12:32:18;25.80;47.10
15705;DHT22;7952;48.396;12.806;2023-05-07T12:34:45;25.80;47.00
15705;DHT22;7952;48.396;12.806;2023-05-07T12:37:14;25.70;47.50
15705;DHT22;7952;48.396;12.806;2023-05-07T12:40:03;25.60;46.80
15705;DHT22;7952;48.396;12.806;2023-05-07T12:42:36;25.60;47.00
15705;DHT22;7952;48.396;12.806;2023-05-07T12:45:15;25.50;46.90
15705;DHT22;7952;48.396;12.806;2023-05-07T12:47:45;25.50;47.00
15705;DHT22;7952;48.396;12.806;2023-05-07T12:50:11;25.50;47.20
15705;DHT22;7952;48.396;12.806;2023-05-07T12:52:37;25.50;47.20
15705;DHT22;7952;48.396;12.806;2023-05-07T12:55:07;25.60;47.00
15705;DHT22;7952;48.396;12.806;2023-05-07T12:57:45;25.60;46.90
15705;DHT22;7952;48.396;12.806;2023-05-07T13:00:13;25.50;46.80
15705;DHT22;7952;48.396;12.806;2023-05-07T13:02:41;25.40;46.70
15705;DHT22;7952;48.396;12.806;2023-05-07T13:05:07;25.40;46.70
15705;DHT22;7952;48.396;12.806;2023-05-07T13:07:34;25.30;46.60
15705;DHT22;7952;48.396;12.806;2023-05-07T13:10:03;25.30;46.50
15705;DHT22;7952;48.396;12.806;2023-05-07T13:12:29;25.20;46.40
15705;DHT22;7952;48.396;12.806;2023-05-07T13:14:55;25.20;46.40
15705;DHT22;7952;48.396;12.806;2023-05-07T13:17:21;25.10;46.40
15705;DHT22;7952;48.396;12.806;2023-05-07T13:19:46;25.10;46.40
15705;DHT22;7952;48.396;12.806;2023-05-07T13:22:12;25.10;46.40
15705;DHT22;7952;48.396;12.806;2023-05-07T13:24:38;25.00;46.40
15705;DHT22;7952;48.396;12.806;2023-05-07T13:27:07;25.00;46.60
15705;DHT22;7952;48.396;12.806;2023-05-07T13:29:32;25.00;46.80
15705;DHT22;7952;48.396;12.806;2023-05-07T13:31:58;25.10;46.70
15705;DHT22;7952;48.396;12.806;2023-05-07T13:34:24;25.10;46.40
15705;DHT22;7952;48.396;12.806;2023-05-07T13:36:50;25.00;46.30
15705;DHT22;7952;48.396;12.806;2023-05-07T13:39:16;25.00;46.30
15705;DHT22;7952;48.396;12.806;2023-05-07T13:41:41;25.00;46.30
15705;DHT22;7952;48.396;12.806;2023-05-07T13:44:07;25.00;46.40
15705;DHT22;7952;48.396;12.806;2023-05-07T13:46:33;25.00;46.30
15705;DHT22;7952;48.396;12.806;2023-05-07T13:48:59;25.10;46.30
15705;DHT22;7952;48.396;12.806;2023-05-07T13:51:25;25.10;46.20
15705;DHT22;7952;48.396;12.806;2023-05-07T13:53:51;25.10;45.90
15705;DHT22;7952;48.396;12.806;2023-05-07T13:56:17;25.00;45.70
15705;DHT22;7952;48.396;12.806;2023-05-07T13:58:43;25.00;45.70
15705;DHT22;7952;48.396;12.806;2023-05-07T14:01:09;25.00;45.80
15705;DHT22;7952;48.396;12.806;2023-05-07T14:03:35;24.90;45.80
15705;DHT22;7952;48.396;12.806;2023-05-07T14:06:03;24.90;45.90
15705;DHT22;7952;48.396;12.806;2023-05-07T14:08:29;24.90;46.00
15705;DHT22;7952;48.396;12.806;2023-05-07T14:10:55;24.90;45.90
15705;DHT22;7952;48.396;12.806;2023-05-07T14:13:20;24.90;45.80
15705;DHT22;7952;48.396;12.806;2023-05-07T14:15:46;24.90;45.80
15705;DHT22;7952;48.396;12.806;2023-05-07T14:18:14;24.80;45.70
15705;DHT22;7952;48.396;12.806;2023-05-07T14:20:39;24.80;45.70
15705;DHT22;7952;48.396;12.806;2023-05-07T14:23:05;24.80;45.60
15705;DHT22;7952;48.396;12.806;2023-05-07T14:25:32;24.70;45.60
15705;DHT22;7952;48.396;12.806;2023-05-07T14:27:57;24.70;45.60
15705;DHT22;7952;48.396;12.806;2023-05-07T14:30:23;24.60;45.30
15705;DHT22;7952;48.396;12.806;2023-05-07T14:32:50;24.50;45.30
15705;DHT22;7952;48.396;12.806;2023-05-07T14:35:16;24.40;45.30
15705;DHT22;7952;48.396;12.806;2023-05-07T14:37:43;24.40;45.40
15705;DHT22;7952;48.396;12.806;2023-05-07T14:40:09;24.40;45.40
15705;DHT22;7952;48.396;12.806;2023-05-07T14:42:34;24.30;45.40
15705;DHT22;7952;48.396;12.806;2023-05-07T14:45:01;24.30;45.40
15705;DHT22;7952;48.396;12.806;2023-05-07T14:47:27;24.30;45.50
15705;DHT22;7952;48.396;12.806;2023-05-07T14:49:52;24.30;45.50
15705;DHT22;7952;48.396;12.806;2023-05-07T14:52:18;24.30;45.50
15705;DHT22;7952;48.396;12.806;2023-05-07T14:54:44;24.20;45.40
15705;DHT22;7952;48.396;12.806;2023-05-07T14:57:11;24.20;45.40
15705;DHT22;7952;48.396;12.806;2023-05-07T14:59:41;24.20;45.40
15705;DHT22;7952;48.396;12.806;2023-05-07T15:02:07;24.20;45.40
15705;DHT22;7952;48.396;12.806;2023-05-07T15:04:34;24.20;45.40
15705;DHT22;7952;48.396;12.806;2023-05-07T15:07:00;24.20;45.40
15705;DHT22;7952;48.396;12.806;2023-05-07T15:09:26;24.20;45.40
15705;DHT22;7952;48.396;12.806;2023-05-07T15:11:52;24.20;45.40
15705;DHT22;7952;48.396;12.806;2023-05-07T15:14:18;24.20;45.30
15705;DHT22;7952;48.396;12.806;2023-05-07T15:16:44;24.20;45.30
15705;DHT22;7952;48.396;12.806;2023-05-07T15:19:10;24.20;45.30
15705;DHT22;7952;48.396;12.806;2023-05-07T15:21:36;24.10;45.30
15705;DHT22;7952;48.396;12.806;2023-05-07T15:24:02;24.10;45.40
15705;DHT22;7952;48.396;12.806;2023-05-07T15:26:28;24.00;45.40
15705;DHT22;7952;48.396;12.806;2023-05-07T15:28:54;24.00;45.60
15705;DHT22;7952;48.396;12.806;2023-05-07T15:31:23;23.90;45.70
15705;DHT22;7952;48.396;12.806;2023-05-07T15:33:49;23.90;46.40
15705;DHT22;7952;48.396;12.806;2023-05-07T15:36:17;23.80;45.80
15705;DHT22;7952;48.396;12.806;2023-05-07T15:38:43;23.80;45.90
15705;DHT22;7952;48.396;12.806;2023-05-07T15:41:09;23.70;45.90